Time;durP1;ratioP1;P1;durP2;ratioP2;P2;SDS_P1;SDS_P2;PMS_P1;PMS_P2;Temp;Humidity;BMP_temperature;BMP_pressure;BME280_temperature;BME280_humidity;BME280_pressure;Samples;Min_cycle;Max_cycle;Signal;HPM_P1;HPM_P2
2022/07/29 00:00:53;;;;;;;4.80;1.63;;;;;;;;;;5034813;27;95454;-75
2022/07/29 00:03:20;;;;;;;7.10;1.95;;;;;;;;;;5034584;28;96721;-75
2022/07/29 00:05:46;;;;;;;2.65;1.50;;;;;;;;;;5050128;27;97304;-76
2022/07/29 00:08:12;;;;;;;5.30;1.85;;;;;;;;;;5039802;27;95941;-76
2022/07/29 00:10:39;;;;;;;5.40;1.98;;;;;;;;;;5033592;27;97417;-76
2022/07/29 00:13:05;;;;;;;3.47;1.70;;;;;;;;;;5034924;28;95508;-76
2022/07/29 00:15:32;;;;;;;5.25;2.08;;;;;;;;;;5035964;27;97070;-75
2022/07/29 00:17:58;;;;;;;5.95;1.85;;;;;;;;;;5033993;28;97615;-76
2022/07/29 00:20:24;;;;;;;4.22;1.70;;;;;;;;;;5046587;27;95263;-75
2022/07/29 00:22:51;;;;;;;3.40;2.00;;;;;;;;;;5055145;27;96825;-76
2022/07/29 00:25:18;;;;;;;5.45;1.90;;;;;;;;;;5050587;27;97640;-75
2022/07/29 00:27:45;;;;;;;3.28;1.75;;;;;;;;;;5055989;27;95449;-75
2022/07/29 00:30:12;;;;;;;4.88;1.85;;;;;;;;;;5037498;27;97333;-75
2022/07/29 00:32:38;;;;;;;6.45;2.33;;;;;;;;;;5032366;28;95362;-75
2022/07/29 00:37:49;;;;;;;5.47;2.30;;;;;;;;;;5054296;27;96337;-75
2022/07/29 00:40:16;;;;;;;4.68;1.65;;;;;;;;;;5050264;27;95210;-75
2022/07/29 00:42:49;;;;;;;4.97;1.90;;;;;;;;;;5034571;27;96825;-75
2022/07/29 00:45:16;;;;;;;2.90;1.60;;;;;;;;;;5037617;27;96217;-75
2022/07/29 00:47:44;;;;;;;4.05;1.80;;;;;;;;;;5033659;27;95402;-75
2022/07/29 00:50:11;;;;;;;5.40;1.90;;;;;;;;;;5038701;27;97096;-75
2022/07/29 00:52:38;;;;;;;6.43;2.00;;;;;;;;;;5032692;27;95496;-75
2022/07/29 00:55:06;;;;;;;3.75;1.70;;;;;;;;;;5040350;27;96698;-75
2022/07/29 00:57:34;;;;;;;5.90;2.10;;;;;;;;;;5051244;27;96334;-75
2022/07/29 01:00:03;;;;;;;4.40;2.00;;;;;;;;;;5054036;27;95306;-75
2022/07/29 01:02:29;;;;;;;4.10;1.90;;;;;;;;;;5054172;27;96836;-76
2022/07/29 01:04:56;;;;;;;6.50;2.30;;;;;;;;;;5045825;27;98762;-75
2022/07/29 01:07:24;;;;;;;4.05;1.88;;;;;;;;;;5033048;28;95386;-75
2022/07/29 01:09:50;;;;;;;3.83;2.00;;;;;;;;;;5034278;28;96840;-75
2022/07/29 01:12:18;;;;;;;6.28;2.00;;;;;;;;;;5036825;28;97684;-75
2022/07/29 01:14:45;;;;;;;3.92;1.90;;;;;;;;;;5037171;27;96873;-75
2022/07/29 01:17:23;;;;;;;8.38;2.05;;;;;;;;;;5050073;27;96199;-75
2022/07/29 01:19:53;;;;;;;5.40;2.15;;;;;;;;;;5053465;27;95219;-76
2022/07/29 01:22:25;;;;;;;6.32;2.05;;;;;;;;;;5037818;27;96762;-76
2022/07/29 01:25:07;;;;;;;4.63;2.10;;;;;;;;;;5032719;28;97860;-75
2022/07/29 01:27:46;;;;;;;5.57;2.50;;;;;;;;;;5042305;27;95320;-75
2022/07/29 01:30:12;;;;;;;4.75;2.15;;;;;;;;;;5054535;27;96940;-75
2022/07/29 01:32:42;;;;;;;7.05;2.20;;;;;;;;;;5056901;27;96640;-76
2022/07/29 01:35:14;;;;;;;4.60;1.98;;;;;;;;;;5051313;27;96949;-75
2022/07/29 01:37:50;;;;;;;7.15;2.17;;;;;;;;;;5053378;27;97756;-75
2022/07/29 01:40:20;;;;;;;3.92;1.80;;;;;;;;;;5051985;27;95953;-75
2022/07/29 01:42:52;;;;;;;8.07;2.10;;;;;;;;;;5041657;27;97174;-75
2022/07/29 01:45:21;;;;;;;7.53;2.05;;;;;;;;;;5032129;28;96953;-75
2022/07/29 01:48:06;;;;;;;4.57;1.92;;;;;;;;;;5033158;27;95341;-75
2022/07/29 01:50:34;;;;;;;6.53;2.00;;;;;;;;;;5033889;27;96879;-75
2022/07/29 01:53:02;;;;;;;4.35;1.95;;;;;;;;;;5032893;27;97284;-75
2022/07/29 01:55:30;;;;;;;6.20;2.10;;;;;;;;;;5050627;27;95269;-75
2022/07/29 01:57:58;;;;;;;5.68;2.45;;;;;;;;;;5053399;27;97667;-75
2022/07/29 02:00:25;;;;;;;4.50;2.13;;;;;;;;;;5051441;27;94987;-76
2022/07/29 02:02:53;;;;;;;5.93;1.90;;;;;;;;;;5053036;27;96818;-75
2022/07/29 02:05:21;;;;;;;5.30;2.00;;;;;;;;;;5044608;27;97618;-75
2022/07/29 02:07:48;;;;;;;4.18;2.20;;;;;;;;;;5033044;28;95405;-75
2022/07/29 02:10:16;;;;;;;5.38;2.10;;;;;;;;;;5032591;27;96742;-75
2022/07/29 02:12:44;;;;;;;5.03;2.20;;;;;;;;;;5031384;28;97617;-75
2022/07/29 02:15:16;;;;;;;6.40;2.10;;;;;;;;;;5040752;27;95237;-75
2022/07/29 02:17:50;;;;;;;4.45;1.80;;;;;;;;;;5055675;27;96769;-75
2022/07/29 02:20:17;;;;;;;4.03;1.90;;;;;;;;;;5050620;27;95336;-75
2022/07/29 02:22:44;;;;;;;3.78;2.15;;;;;;;;;;5053467;27;97143;-75
2022/07/29 02:25:10;;;;;;;4.68;2.22;;;;;;;;;;5047971;27;97412;-75
2022/07/29 02:27:40;;;;;;;8.35;2.17;;;;;;;;;;5051796;27;95489;-74
2022/07/29 02:30:07;;;;;;;7.57;2.35;;;;;;;;;;5053548;27;96803;-77
2022/07/29 02:32:35;;;;;;;5.05;2.50;;;;;;;;;;5039727;27;97443;-77
2022/07/29 02:35:02;;;;;;;6.63;2.55;;;;;;;;;;5031772;28;95211;-77
2022/07/29 02:37:29;;;;;;;4.28;2.20;;;;;;;;;;5045448;27;96756;-75
2022/07/29 02:39:57;;;;;;;7.80;2.50;;;;;;;;;;5055623;27;97706;-75
2022/07/29 02:42:23;;;;;;;5.18;2.40;;;;;;;;;;5052759;27;96033;-77
2022/07/29 02:44:50;;;;;;;4.53;2.38;;;;;;;;;;5043175;27;97721;-75
2022/07/29 02:47:19;;;;;;;4.00;2.47;;;;;;;;;;5042716;27;95343;-75
2022/07/29 02:49:52;;;;;;;10.68;2.53;;;;;;;;;;5031555;28;96950;-74
2022/07/29 02:52:24;;;;;;;5.07;2.30;;;;;;;;;;5031741;28;97479;-74
2022/07/29 02:54:53;;;;;;;6.40;2.88;;;;;;;;;;5041933;27;96143;-74
2022/07/29 02:57:29;;;;;;;5.90;2.55;;;;;;;;;;5050648;27;97074;-74
2022/07/29 02:59:58;;;;;;;7.32;2.53;;;;;;;;;;5040131;27;96207;-74
2022/07/29 03:02:26;;;;;;;4.40;2.70;;;;;;;;;;5055166;27;95421;-77
2022/07/29 03:04:53;;;;;;;3.83;2.42;;;;;;;;;;5047612;27;97478;-74
2022/07/29 03:07:20;;;;;;;3.72;2.40;;;;;;;;;;5052004;27;95528;-77
2022/07/29 03:09:47;;;;;;;6.97;2.55;;;;;;;;;;5052782;27;96643;-74
2022/07/29 03:12:14;;;;;;;6.93;2.63;;;;;;;;;;5052248;27;96086;-77
2022/07/29 03:14:41;;;;;;;3.80;2.38;;;;;;;;;;5049910;27;95285;-74
2022/07/29 03:17:09;;;;;;;5.95;2.60;;;;;;;;;;5035657;27;97066;-74
2022/07/29 03:19:35;;;;;;;5.93;2.60;;;;;;;;;;5052496;27;96889;-75
2022/07/29 03:22:02;;;;;;;7.30;2.50;;;;;;;;;;5052094;27;95366;-75
2022/07/29 03:24:29;;;;;;;6.32;2.60;;;;;;;;;;5053802;27;96703;-75
2022/07/29 03:26:56;;;;;;;5.90;2.65;;;;;;;;;;5039277;27;95386;-75
2022/07/29 03:29:23;;;;;;;5.07;2.70;;;;;;;;;;5035573;28;96800;-75
2022/07/29 03:31:58;;;;;;;7.88;2.67;;;;;;;;;;5035504;27;97261;-75
2022/07/29 03:34:24;;;;;;;5.55;2.90;;;;;;;;;;5052952;27;95158;-75
2022/07/29 03:36:51;;;;;;;5.07;2.90;;;;;;;;;;5055609;27;96074;-75
2022/07/29 03:39:20;;;;;;;4.75;2.28;;;;;;;;;;5044221;27;96191;-75
2022/07/29 03:41:47;;;;;;;7.57;2.58;;;;;;;;;;5038623;27;95489;-75
2022/07/29 03:44:14;;;;;;;6.28;2.70;;;;;;;;;;5058090;27;95848;-74
2022/07/29 03:46:43;;;;;;;5.50;2.75;;;;;;;;;;5055921;27;95464;-75
2022/07/29 03:49:11;;;;;;;8.75;2.60;;;;;;;;;;5052772;27;96558;-75
2022/07/29 03:51:38;;;;;;;11.45;2.53;;;;;;;;;;5053774;27;97387;-75
2022/07/29 03:54:05;;;;;;;6.15;2.90;;;;;;;;;;5043811;27;95806;-74
2022/07/29 03:56:37;;;;;;;6.38;2.67;;;;;;;;;;5039167;27;96056;-74
2022/07/29 03:59:04;;;;;;;5.90;2.58;;;;;;;;;;5055567;27;97381;-74
2022/07/29 04:01:33;;;;;;;5.15;2.45;;;;;;;;;;5053618;27;95319;-74
2022/07/29 04:04:00;;;;;;;8.40;2.70;;;;;;;;;;5051568;27;96778;-74
2022/07/29 04:06:27;;;;;;;5.15;2.65;;;;;;;;;;5057340;27;97356;-75
2022/07/29 04:08:53;;;;;;;4.25;2.40;;;;;;;;;;5049420;27;95468;-74
2022/07/29 04:11:19;;;;;;;10.95;2.40;;;;;;;;;;5034272;27;97836;-74
2022/07/29 04:13:46;;;;;;;7.45;2.33;;;;;;;;;;5034203;28;95339;-75
2022/07/29 04:16:12;;;;;;;6.03;2.38;;;;;;;;;;5048082;27;97011;-75
2022/07/29 04:18:38;;;;;;;5.95;2.30;;;;;;;;;;5054698;27;97426;-75
2022/07/29 04:21:05;;;;;;;3.67;2.30;;;;;;;;;;5054110;27;96214;-75
2022/07/29 04:23:33;;;;;;;5.63;2.70;;;;;;;;;;5043610;27;96743;-75
2022/07/29 04:26:00;;;;;;;5.97;2.40;;;;;;;;;;5032807;27;97491;-75
2022/07/29 04:28:27;;;;;;;7.75;2.40;;;;;;;;;;5036504;27;96319;-75
2022/07/29 04:30:53;;;;;;;7.25;2.70;;;;;;;;;;5047055;27;97519;-75
2022/07/29 04:33:19;;;;;;;4.15;2.13;;;;;;;;;;5054796;27;95287;-75
2022/07/29 04:35:48;;;;;;;6.13;2.20;;;;;;;;;;5036531;27;97160;-75
2022/07/29 04:38:17;;;;;;;8.27;3.10;;;;;;;;;;5034192;27;97487;-75
2022/07/29 04:40:44;;;;;;;5.47;2.50;;;;;;;;;;5051624;27;95547;-75
2022/07/29 04:43:12;;;;;;;6.75;2.83;;;;;;;;;;5055180;27;96737;-75
2022/07/29 04:45:40;;;;;;;5.88;2.40;;;;;;;;;;5037144;27;97310;-75
2022/07/29 04:48:07;;;;;;;4.78;2.30;;;;;;;;;;5050885;27;95875;-75
2022/07/29 04:50:33;;;;;;;4.03;2.30;;;;;;;;;;5057566;27;96783;-75
2022/07/29 04:53:00;;;;;;;4.38;2.10;;;;;;;;;;5042007;27;96770;-75
2022/07/29 04:55:26;;;;;;;5.63;2.20;;;;;;;;;;5046663;27;96621;-75
2022/07/29 19:58:22;;;;;;;8.05;3.45;;;;;;;;;;5046971;27;1369423;-75
2022/07/29 20:00:52;;;;;;;10.63;3.65;;;;;;;;;;5086969;27;97398;-75
2022/07/29 20:03:18;;;;;;;11.43;3.40;;;;;;;;;;5087401;27;95601;-75
2022/07/29 20:05:46;;;;;;;8.60;3.70;;;;;;;;;;5088850;27;96696;-75
2022/07/29 20:08:13;;;;;;;10.45;4.00;;;;;;;;;;5085240;27;97430;-75
2022/07/29 20:10:45;;;;;;;7.75;3.95;;;;;;;;;;5081276;27;95755;-76
2022/07/29 20:13:11;;;;;;;13.10;3.78;;;;;;;;;;5083357;27;96762;-75
2022/07/29 20:15:38;;;;;;;9.73;3.95;;;;;;;;;;5074979;27;97395;-75
2022/07/29 20:18:04;;;;;;;10.63;4.28;;;;;;;;;;5090850;27;95476;-76
2022/07/29 20:20:31;;;;;;;10.02;3.50;;;;;;;;;;5084853;27;97611;-75
2022/07/29 20:22:58;;;;;;;6.97;3.17;;;;;;;;;;5084401;27;95655;-76
2022/07/29 20:25:24;;;;;;;7.60;3.63;;;;;;;;;;5081739;27;96704;-85
2022/07/29 20:27:53;;;;;;;7.60;3.38;;;;;;;;;;5072344;27;97455;-75
2022/07/29 20:30:20;;;;;;;7.70;3.08;;;;;;;;;;5078005;27;96099;-75
2022/07/29 20:32:47;;;;;;;8.20;3.28;;;;;;;;;;5082670;27;96904;-75
2022/07/29 20:35:13;;;;;;;8.63;2.80;;;;;;;;;;5067239;27;97490;-75
2022/07/29 20:37:40;;;;;;;10.55;3.45;;;;;;;;;;5073303;27;95299;-75
2022/07/29 20:40:21;;;;;;;10.77;3.50;;;;;;;;;;5071543;27;96730;-76
2022/07/29 20:42:48;;;;;;;9.68;3.10;;;;;;;;;;5083125;27;95744;-76
2022/07/29 20:45:14;;;;;;;10.23;3.10;;;;;;;;;;5086340;27;97072;-76
2022/07/29 20:47:40;;;;;;;6.55;3.47;;;;;;;;;;5086822;27;97247;-76
2022/07/29 20:50:08;;;;;;;7.68;3.15;;;;;;;;;;5086763;27;95445;-75
2022/07/29 20:52:35;;;;;;;9.13;3.38;;;;;;;;;;5085346;27;95789;-75
2022/07/29 20:55:01;;;;;;;11.48;3.30;;;;;;;;;;5081675;27;97306;-75
2022/07/29 20:57:28;;;;;;;8.70;3.13;;;;;;;;;;5081903;27;96543;-76
2022/07/29 21:00:05;;;;;;;9.25;3.40;;;;;;;;;;5082394;27;96670;-83
2022/07/29 21:02:32;;;;;;;9.20;3.17;;;;;;;;;;5088239;27;97534;-75
2022/07/29 21:05:01;;;;;;;11.55;3.50;;;;;;;;;;5088628;27;96797;-75
2022/07/29 21:07:28;;;;;;;10.02;3.63;;;;;;;;;;5085332;27;96712;-76
2022/07/29 21:09:54;;;;;;;9.73;3.40;;;;;;;;;;5073884;27;95308;-75
2022/07/29 21:12:21;;;;;;;8.27;3.50;;;;;;;;;;5069220;27;96569;-75
2022/07/29 21:14:48;;;;;;;10.98;3.35;;;;;;;;;;5072182;27;97382;-75
2022/07/29 21:17:15;;;;;;;11.07;3.95;;;;;;;;;;5075130;27;95535;-75
2022/07/29 21:19:41;;;;;;;11.10;3.80;;;;;;;;;;5074828;27;97148;-75
2022/07/29 21:22:08;;;;;;;20.27;4.20;;;;;;;;;;5074213;27;97398;-75
2022/07/29 21:24:35;;;;;;;12.60;4.53;;;;;;;;;;5078065;27;95383;-75
2022/07/29 21:29:47;;;;;;;12.90;3.90;;;;;;;;;;5075532;27;95423;-75
2022/07/29 21:32:13;;;;;;;12.77;4.15;;;;;;;;;;5071146;27;97251;-75
2022/07/29 21:34:55;;;;;;;10.32;4.32;;;;;;;;;;5075514;27;97378;-75
2022/07/29 21:37:21;;;;;;;8.15;4.35;;;;;;;;;;5073686;27;95494;-75
2022/07/29 21:39:48;;;;;;;12.10;4.50;;;;;;;;;;5075684;27;96912;-75
2022/07/29 21:42:14;;;;;;;11.85;4.53;;;;;;;;;;5070308;27;96965;-75
2022/07/29 21:44:41;;;;;;;15.43;4.38;;;;;;;;;;5074756;27;95011;-75
2022/07/29 21:47:07;;;;;;;14.30;4.72;;;;;;;;;;5076731;27;96888;-75
2022/07/29 21:49:37;;;;;;;11.70;4.47;;;;;;;;;;5074790;27;95213;-75
2022/07/29 21:52:04;;;;;;;16.20;4.78;;;;;;;;;;5074637;27;97112;-75
2022/07/29 21:54:33;;;;;;;13.60;4.65;;;;;;;;;;5073418;27;97374;-75
2022/07/29 21:56:59;;;;;;;13.02;4.93;;;;;;;;;;5070699;27;96754;-75
2022/07/29 21:59:26;;;;;;;14.55;4.78;;;;;;;;;;5074554;27;96778;-75
2022/07/29 22:01:52;;;;;;;14.35;4.60;;;;;;;;;;5074840;27;97640;-75
2022/07/29 22:04:19;;;;;;;16.88;5.30;;;;;;;;;;5073846;27;95333;-75
2022/07/29 22:06:45;;;;;;;13.43;4.43;;;;;;;;;;5073152;27;96168;-75
2022/07/29 22:09:12;;;;;;;14.38;4.95;;;;;;;;;;5073893;27;95457;-75
2022/07/29 22:11:38;;;;;;;12.38;4.93;;;;;;;;;;5074856;27;96806;-75
2022/07/29 22:14:06;;;;;;;7.95;4.55;;;;;;;;;;5073193;27;97462;-75
2022/07/29 22:16:32;;;;;;;12.45;5.13;;;;;;;;;;5072969;27;95634;-75
2022/07/29 22:18:58;;;;;;;11.13;4.72;;;;;;;;;;5075117;27;96774;-75
2022/07/29 22:21:25;;;;;;;9.73;4.15;;;;;;;;;;5072435;27;96687;-75
2022/07/29 22:23:51;;;;;;;14.85;4.70;;;;;;;;;;5071381;27;96664;-75
2022/07/29 22:26:18;;;;;;;9.55;4.10;;;;;;;;;;5073526;27;95498;-75
2022/07/29 22:28:45;;;;;;;11.05;4.63;;;;;;;;;;5077596;27;97424;-75
2022/07/29 22:31:11;;;;;;;17.30;4.53;;;;;;;;;;5073691;27;96744;-75
2022/07/29 22:33:37;;;;;;;13.70;4.68;;;;;;;;;;5072750;27;97392;-75
2022/07/29 22:36:04;;;;;;;9.82;4.43;;;;;;;;;;5074631;27;95518;-75
2022/07/29 22:38:30;;;;;;;24.58;5.57;;;;;;;;;;5070479;27;96529;-76
2022/07/29 22:40:56;;;;;;;20.85;7.40;;;;;;;;;;5073105;27;96662;-75
2022/07/29 22:43:26;;;;;;;16.17;7.53;;;;;;;;;;5072858;27;95328;-75
2022/07/29 22:45:52;;;;;;;14.20;7.28;;;;;;;;;;5072839;27;96680;-75
2022/07/29 22:48:19;;;;;;;13.15;6.22;;;;;;;;;;5071984;27;97351;-75
2022/07/29 22:50:45;;;;;;;11.95;5.38;;;;;;;;;;5073319;27;95180;-75
2022/07/29 22:53:12;;;;;;;16.40;5.38;;;;;;;;;;5074275;27;97724;-75
2022/07/29 22:55:38;;;;;;;13.90;5.35;;;;;;;;;;5072284;27;95505;-75
2022/07/29 22:58:05;;;;;;;23.13;5.10;;;;;;;;;;5072460;27;96823;-75
2022/07/29 23:00:31;;;;;;;10.50;4.45;;;;;;;;;;5070466;27;97377;-75
2022/07/29 23:02:57;;;;;;;14.15;4.60;;;;;;;;;;5073765;27;95072;-75
2022/07/29 23:05:24;;;;;;;10.68;4.40;;;;;;;;;;5073081;27;96784;-75
2022/07/29 23:07:51;;;;;;;13.23;4.68;;;;;;;;;;5072457;27;97512;-75
2022/07/29 23:10:17;;;;;;;10.65;4.25;;;;;;;;;;5072000;27;95313;-75
2022/07/29 23:12:44;;;;;;;8.02;4.35;;;;;;;;;;5077311;27;97016;-75
2022/07/29 23:15:10;;;;;;;11.35;4.43;;;;;;;;;;5072900;27;95350;-75
2022/07/29 23:17:36;;;;;;;10.77;4.28;;;;;;;;;;5073318;27;97803;-75
2022/07/29 23:20:04;;;;;;;10.95;4.47;;;;;;;;;;5072449;27;97472;-75
2022/07/29 23:22:30;;;;;;;12.48;4.30;;;;;;;;;;5073282;27;95347;-75
2022/07/29 23:24:57;;;;;;;12.13;4.50;;;;;;;;;;5072385;27;96945;-75
2022/07/29 23:27:23;;;;;;;9.63;4.38;;;;;;;;;;5072002;27;97418;-75
2022/07/29 23:29:50;;;;;;;9.07;4.10;;;;;;;;;;5073392;27;95186;-75
2022/07/29 23:32:16;;;;;;;11.30;4.90;;;;;;;;;;5073054;27;95255;-75
2022/07/29 23:34:42;;;;;;;11.02;4.72;;;;;;;;;;5071431;27;97351;-75
2022/07/29 23:37:09;;;;;;;13.23;4.35;;;;;;;;;;5073070;27;96998;-75
2022/07/29 23:39:35;;;;;;;11.30;4.68;;;;;;;;;;5073072;27;97488;-75
2022/07/29 23:42:02;;;;;;;12.70;4.47;;;;;;;;;;5072670;27;95366;-77
2022/07/29 23:44:28;;;;;;;9.85;4.85;;;;;;;;;;5070691;27;96812;-77
2022/07/29 23:46:55;;;;;;;11.27;4.60;;;;;;;;;;5072310;27;97315;-74
2022/07/29 23:49:21;;;;;;;12.00;5.10;;;;;;;;;;5069049;27;95219;-75
2022/07/29 23:51:48;;;;;;;12.10;4.90;;;;;;;;;;5073024;27;97083;-74
2022/07/29 23:54:14;;;;;;;10.85;4.43;;;;;;;;;;5073483;27;97766;-75
2022/07/29 23:56:40;;;;;;;13.05;4.90;;;;;;;;;;5075247;27;95461;-77
2022/07/29 23:59:07;;;;;;;11.25;4.60;;;;;;;;;;5071689;27;97845;-77
